Station: Hindmarsh Island  

  Atmospheric Gas Attenuation - ITU Rec 676-11   ----------------- dB/100km -----------------
Date Time Temp RH % AH g/m3 Dew Point Wind Direction Speed kph Gust kph Barometer mB Rainfall Since 9am 24GHz 47GHz 76GHz 122GHz 134GHz 241GHz
02/09 20:30 12.3 73 7.93 7.6 15 20 1015.2 0 18.2 25.3 37.9 99.4 91.6 314.3
02/09 20:20 12.6 72 7.97 7.7 13 17 1015.1 0 18.3 25.3 37.9 99.5 91.7 314.9
02/09 20:10 12.8 72 8.07 7.9 11 17 1015 0 18.5 25.4 38.2 100.3 92.8 318.7
02/09 20:00 12.8 71 7.95 7.7 13 20 1015 0 18.2 25.2 37.8 99.0 91.2 313.2
02/09 19:50 12.9 71 8 7.8 15 20 1015 0 18.3 25.3 37.9 99.4 91.7 315.1
02/09 19:40 13 70 7.94 7.7 17 22 1015 0 18.2 25.1 37.6 98.6 90.8 311.9
02/09 19:30 13 69 7.83 7.5 20 26 1014.8 0 18.0 24.9 37.2 97.5 89.4 306.9
02/09 19:20 13 68 7.71 7.2 19 26 1014.7 0 17.7 24.7 36.7 96.2 87.8 301.4
02/09 19:10 12.8 66 7.39 6.6 15 24 1014.7 0 17.1 24.3 35.6 93.1 83.9 287.7
02/09 19:00 12.7 68 7.57 7 13 20 1014.5 0 17.4 24.6 36.3 95.1 86.3 296.1
02/09 18:50 12.5 71 7.81 7.4 11 15 1014.6 0 18.0 25.0 37.3 97.8 89.7 307.8
02/09 18:40 12.6 75 8.3 8.3 13 15 1014.7 0 19.0 25.8 39.3 103.0 96.0 330.1
02/09 18:30 12.6 76 8.41 8.5 11 17 1014.5 0 19.2 26.0 39.7 104.1 97.5 335.2
02/09 18:20 12.4 77 8.41 8.5 9 15 1014.4 0 19.2 26.0 39.8 104.4 97.7 336.0
02/09 18:10 12.4 76 8.3 8.3 13 17 1014.4 0 19.0 25.9 39.3 103.2 96.3 330.8
02/09 18:00 12.6 75 8.3 8.3 15 20 1014.4 0 19.0 25.8 39.2 102.9 96.0 330.0
02/09 17:50 12.7 74 8.24 8.2 15 22 1014.3 0 18.9 25.7 38.9 102.1 95.1 326.8
02/09 17:40 12.8 73 8.18 8.1 17 22 1014.3 0 18.7 25.5 38.7 101.4 94.2 323.6
02/09 17:30 13 72 8.17 8.1 19 24 1014.4 0 18.7 25.5 38.5 101.0 93.8 322.3
02/09 17:20 13 71 8.05 7.9 20 28 1014.4 0 18.5 25.3 38.0 99.7 92.2 316.8
02/09 17:10 13.3 69 7.97 7.7 22 32 1014.3 0 18.3 25.1 37.6 98.5 90.8 311.9
02/09 17:00 13.9 63 7.55 7 17 28 1014.2 0 17.3 24.2 35.7 93.4 84.8 290.7
02/09 16:50 14.1 61 7.4 6.7 19 26 1014 0 17.0 23.9 35.0 91.6 82.6 283.3
02/09 16:40 14.3 60 7.37 6.6 20 32 1014.1 0 16.9 23.8 34.8 91.1 82.1 281.3
02/09 16:30 14.5 59 7.34 6.6 19 28 1014.2 0 16.9 23.8 34.6 90.6 81.5 279.3
02/09 16:20 14.5 58 7.21 6.3 20 30 1014.2 0 16.6 23.6 34.1 89.2 79.9 273.6
02/09 16:10 14.4 57 7.05 6 22 30 1014.2 0 16.3 23.3 33.5 87.7 78.0 267.0
02/09 16:00 14.6 55 6.88 5.7 22 30 1014.2 0 15.9 23.0 32.8 85.8 75.7 259.0
02/09 15:50 14.7 57 7.18 6.3 17 24 1014.2 0 16.5 23.5 33.9 88.7 79.3 271.6
02/09 15:40 14.9 57 7.26 6.5 17 20 1014.3 0 16.7 23.5 34.1 89.3 80.1 274.5
02/09 15:30 14.8 53 6.71 5.3 19 26 1014.3 0 15.5 22.7 32.1 84.0 73.4 251.1
02/09 15:20 15 53 6.8 5.5 22 32 1014.3 0 15.7 22.8 32.4 84.6 74.3 254.3
02/09 15:10 14.8 54 6.84 5.6 20 30 1014.4 0 15.8 22.9 32.6 85.2 75.0 256.7
02/09 15:00 15 56 7.18 6.3 24 32 1014.5 0 16.5 23.4 33.8 88.4 79.0 270.7
02/09 14:50 14.7 56 7.05 6 26 35 1014.6 0 16.2 23.3 33.4 87.5 77.7 266.1
02/09 14:40 14.9 56 7.14 6.2 24 32 1014.4 0 16.4 23.4 33.7 88.1 78.6 269.3
02/09 14:30 14.9 60 7.65 7.2 17 24 1014.4 0 17.5 24.1 35.6 93.3 85.0 291.5
02/09 14:20 15.1 61 7.87 7.6 17 28 1014.4 0 18.0 24.4 36.4 95.3 87.5 300.5
02/09 14:10 15.3 62 8.1 8.1 19 32 1014.5 0 18.5 24.7 37.2 97.4 90.2 310.0
02/09 14:00 15.3 61 7.97 7.8 24 30 1014.6 0 18.2 24.5 36.7 96.1 88.6 304.2
02/09 13:50 15.3 62 8.1 8.1 22 32 1014.7 0 18.5 24.7 37.2 97.4 90.2 310.0
02/09 13:40 15 61 7.82 7.5 13 15 1014.7 0 17.9 24.4 36.2 94.9 87.0 298.7
02/09 13:30 15.5 61 8.06 8 20 30 1014.9 0 18.4 24.6 36.9 96.8 89.5 307.5
02/09 13:20 14.7 68 8.56 8.9 17 22 1015.1 0 19.5 25.6 39.3 103.0 96.9 333.3
02/09 13:10 14.1 69 8.37 8.5 24 30 1015.1 0 19.1 25.5 38.8 101.8 95.2 327.2
02/09 13:00 14.8 65 8.23 8.3 20 26 1015.1 0 18.8 25.1 37.9 99.4 92.5 317.9
02/09 12:50 14.6 65 8.13 8.1 20 26 1015.2 0 18.5 25.0 37.6 98.7 91.5 314.3
02/09 12:40 14.2 62 7.57 7 24 28 1015.4 0 17.4 24.2 35.7 93.4 84.8 290.8
02/09 12:30 14.3 64 7.86 7.6 24 30 1015.5 0 18.0 24.7 36.7 96.2 88.4 303.4
02/09 12:20 14.3 61 7.49 6.9 26 32 1015.6 0 17.2 24.1 35.3 92.4 83.7 286.9
02/09 12:10 15.2 62 8.05 8 24 28 1015.8 0 18.3 24.7 37.1 97.1 89.8 308.5
02/09 12:00 14.7 65 8.18 8.2 22 28 1015.9 0 18.6 25.1 37.8 99.1 92.0 316.3
02/09 11:50 14.6 66 8.26 8.3 20 26 1016 0 18.8 25.2 38.2 100.1 93.2 320.3
02/09 11:40 15.1 63 8.13 8.1 17 24 1016.3 0 18.5 24.9 37.4 98.1 91.0 312.6
02/09 11:30 15.4 60 7.88 7.7 15 20 1016.4 0 18.0 24.4 36.3 95.2 87.4 300.3
02/09 11:20 14.7 61 7.68 7.3 17 22 1016.6 0 17.6 24.3 35.9 94.0 85.7 294.1
02/09 11:10 14.7 62 7.81 7.5 17 20 1016.8 0 17.9 24.5 36.4 95.4 87.4 300.0
02/09 11:00 14.5 62 7.71 7.3 17 22 1016.9 0 17.7 24.4 36.1 94.6 86.3 296.3
02/09 10:50 14.4 61 7.54 7 19 22 1017 0 17.3 24.2 35.5 93.0 84.3 289.1
02/09 10:40 14.8 61 7.73 7.4 17 26 1017 0 17.7 24.4 36.1 94.5 86.3 296.1
02/09 10:30 14.1 61 7.4 6.7 19 26 1017 0 17.0 24.1 35.1 91.9 82.8 284.0
02/09 10:20 13.9 61 7.31 6.5 20 28 1017.1 0 16.8 24.0 34.9 91.2 81.9 280.8
02/09 10:10 14.1 62 7.52 6.9 20 26 1017.2 0 17.3 24.2 35.6 93.1 84.4 289.4
02/09 10:00 13.8 61 7.27 6.4 20 28 1017.3 0 16.8 23.9 34.8 90.9 81.5 279.4
02/09 09:50 13.8 61 7.27 6.4 20 33 1017.3 0 16.8 23.9 34.8 90.9 81.5 279.4
02/09 09:40 13.9 63 7.55 7 19 26 1017.4 0 17.3 24.4 35.8 93.7 85.0 291.5
02/09 09:30 13.8 61 7.27 6.4 20 24 1017.4 0 16.8 23.9 34.8 90.9 81.6 279.4
02/09 09:20 13.5 63 7.37 6.6 17 24 1017.4 0 17.0 24.2 35.3 92.3 83.1 284.9
02/09 09:10 13.4 62 7.21 6.3 19 26 1017.4 0 16.6 24.0 34.7 90.8 81.2 278.2
02/09 09:00 13.4 62 7.21 6.3 20 26 1017.4 0 16.6 24.0 34.7 90.8 81.2 278.2
02/09 08:50 13.7 65 7.7 7.2 19 26 1017.5 0.6 17.7 24.6 36.5 95.5 87.1 299.0
02/09 08:40 13.8 67 7.98 7.8 17 20 1017.4 0.6 18.3 25.1 37.5 98.3 90.6 311.2
02/09 08:30 13.2 68 7.81 7.4 15 20 1017.3 0.6 17.9 24.9 37.1 97.2 89.1 305.8
02/09 08:20 12.9 69 7.78 7.4 17 22 1017.4 0.6 17.9 25.0 37.1 97.3 89.1 305.6
02/09 08:10 12.9 71 8 7.8 15 20 1017.4 0.6 18.3 25.3 38.0 99.6 91.9 315.7
02/09 08:00 12.8 77 8.63 8.9 13 17 1017.3 0.6 19.7 26.4 40.6 106.5 100.4 345.4
02/09 07:50 12 81 8.63 8.8 13 17 1017.3 0.6 19.7 26.6 41.0 107.6 101.5 348.9
02/09 07:40 11.7 83 8.68 8.9 11 17 1017.2 0.6 19.9 26.8 41.4 108.6 102.5 352.6
02/09 07:30 11.2 85 8.62 8.8 11 15 1017.2 0.6 19.8 26.9 41.4 108.6 102.4 352.0
02/09 07:20 10.9 87 8.66 8.8 11 13 1017.2 0.6 19.9 27.0 41.7 109.5 103.3 355.3
02/09 07:10 10.5 87 8.44 8.4 11 13 1017 0.6 19.4 26.8 41.0 107.6 100.8 346.4
02/09 07:00 10.4 88 8.48 8.5 11 13 1017.1 0.6 19.5 26.9 41.2 108.2 101.5 348.8
02/09 06:50 10.1 87 8.23 8 9 13 1016.9 0.6 19.0 26.5 40.3 105.8 98.4 338.0
02/09 06:40 10.2 87 8.28 8.1 9 11 1016.7 0.6 19.1 26.6 40.5 106.2 99.0 340.0
02/09 06:30 10.4 86 8.29 8.2 9 11 1016.7 0.6 19.1 26.5 40.4 106.0 98.9 339.6
02/09 06:20 10.6 86 8.4 8.4 11 13 1016.7 0.6 19.3 26.6 40.8 106.9 100.1 344.0
02/09 06:10 10.6 86 8.4 8.4 11 15 1016.7 0.6 19.3 26.6 40.8 106.9 100.1 344.0
02/09 06:00 10.8 86 8.5 8.6 15 17 1016.5 0.6 19.5 26.7 41.1 107.8 101.2 347.8
02/09 05:50 10.8 86 8.5 8.6 13 15 1016.5 0.6 19.5 26.7 41.1 107.8 101.2 347.8
02/09 05:40 10.8 86 8.5 8.6 13 15 1016.5 0.6 19.5 26.7 41.1 107.8 101.2 347.8
02/09 05:30 10.9 88 8.75 9 13 17 1016.4 0.6 20.1 27.1 42.1 110.4 104.5 359.4
02/09 05:20 10.8 89 8.8 9.1 13 17 1016.5 0.6 20.2 27.3 42.3 111.1 105.3 362.4
02/09 05:10 10.8 89 8.8 9.1 13 13 1016.3 0.6 20.2 27.2 42.3 111.1 105.3 362.3
02/09 05:00 10.9 89 8.85 9.2 11 13 1016.3 0.6 20.3 27.3 42.5 111.5 105.9 364.3
02/09 04:50 11 89 8.91 9.3 11 15 1016.3 0.6 20.4 27.4 42.7 112.1 106.6 366.7
02/09 04:40 11.1 89 8.97 9.4 11 17 1016.2 0.6 20.5 27.4 42.9 112.6 107.3 369.1
02/09 04:30 11.3 89 9.08 9.6 11 13 1016.1 0.6 20.7 27.6 43.2 113.5 108.5 373.5
02/09 04:20 11.7 88 9.21 9.8 11 15 1016.1 0.6 21.0 27.7 43.6 114.4 109.8 377.9
02/09 04:10 12 88 9.38 10.1 11 17 1016.1 0.6 21.3 27.8 44.1 115.9 111.7 384.7
02/09 04:00 12.3 88 9.56 10.4 15 19 1016.1 0.6 21.7 28.1 44.7 117.5 113.8 392.0

Last Refresh: 02-Sep-2026 20:41:23

Bureau of Meteorology